createdAt,value
2023-07-24T00:00:23.450Z,4.93
2023-07-24T00:02:51.294Z,4.75
2023-07-24T00:05:18.685Z,4.25
2023-07-24T00:07:45.817Z,5.25
2023-07-24T00:10:13.066Z,4.55
2023-07-24T00:12:40.317Z,5.65
2023-07-24T00:15:08.449Z,3.53
2023-07-24T00:17:35.740Z,4.65
2023-07-24T00:20:03.018Z,4.65
2023-07-24T00:22:30.311Z,5.43
2023-07-24T00:24:57.612Z,4.20
2023-07-24T00:27:24.887Z,4.18
2023-07-24T00:29:52.146Z,4.97
2023-07-24T00:32:19.486Z,4.35
2023-07-24T00:34:46.651Z,6.15
2023-07-24T00:37:13.874Z,4.88
2023-07-24T00:39:41.178Z,4.80
2023-07-24T00:42:08.476Z,4.50
2023-07-24T00:44:35.889Z,5.05
2023-07-24T00:47:03.192Z,6.43
2023-07-24T00:49:30.510Z,4.25
2023-07-24T00:51:57.797Z,5.18
2023-07-24T00:54:25.310Z,4.05
2023-07-24T00:56:52.667Z,5.03
2023-07-24T00:59:20.196Z,4.53
2023-07-24T01:01:47.802Z,4.63
2023-07-24T01:04:15.896Z,5.47
2023-07-24T01:06:43.113Z,4.93
2023-07-24T01:09:10.473Z,4.85
2023-07-24T01:11:47.202Z,4.93
2023-07-24T01:14:22.378Z,4.57
2023-07-24T01:16:51.150Z,4.95
2023-07-24T01:19:41.616Z,5.38
2023-07-24T01:22:22.334Z,6.45
2023-07-24T01:24:59.015Z,4.67
2023-07-24T01:27:26.691Z,4.80
2023-07-24T01:29:54.175Z,4.97
2023-07-24T01:32:21.980Z,5.88
2023-07-24T01:34:50.122Z,7.68
2023-07-24T01:37:18.000Z,7.00
2023-07-24T01:39:46.464Z,6.28
2023-07-24T01:42:14.459Z,7.60
2023-07-24T01:44:41.770Z,5.43
2023-07-24T01:47:09.083Z,5.65
2023-07-24T01:49:36.446Z,5.05
2023-07-24T01:52:03.970Z,4.30
2023-07-24T01:54:31.332Z,5.18
2023-07-24T01:56:58.733Z,5.38
2023-07-24T01:59:25.978Z,4.68
2023-07-24T02:01:53.177Z,4.70
2023-07-24T02:04:23.330Z,5.18
2023-07-24T02:06:51.263Z,4.30
2023-07-24T02:09:21.753Z,5.45
2023-07-24T02:11:49.127Z,4.13
2023-07-24T02:14:19.928Z,5.15
2023-07-24T02:16:47.240Z,5.57
2023-07-24T02:19:14.636Z,4.07
2023-07-24T02:21:41.955Z,4.38
2023-07-24T02:24:09.307Z,4.93
2023-07-24T02:26:36.941Z,6.15
2023-07-24T02:29:04.129Z,6.97
2023-07-24T02:31:31.350Z,5.07
2023-07-24T02:33:58.604Z,6.10
2023-07-24T02:36:25.905Z,4.88
2023-07-24T02:38:53.151Z,6.88
2023-07-24T02:41:20.382Z,5.57
2023-07-24T02:43:47.664Z,5.10
2023-07-24T02:46:14.949Z,4.90
2023-07-24T02:48:42.275Z,4.55
2023-07-24T02:51:09.583Z,5.38
2023-07-24T02:53:36.956Z,5.40
2023-07-24T02:56:04.312Z,6.05
2023-07-24T02:58:31.577Z,5.10
2023-07-24T03:01:07.254Z,4.82
2023-07-24T03:03:35.513Z,5.22
2023-07-24T03:06:03.202Z,4.90
2023-07-24T03:08:30.327Z,5.13
2023-07-24T03:10:57.636Z,6.00
2023-07-24T03:13:24.946Z,5.32
2023-07-24T03:15:59.085Z,4.50
2023-07-24T03:18:26.763Z,4.45
2023-07-24T03:20:53.912Z,4.68
2023-07-24T03:23:21.613Z,5.97
2023-07-24T03:25:48.951Z,4.60
2023-07-24T03:28:16.099Z,7.38
2023-07-24T03:30:43.283Z,4.65
2023-07-24T03:33:10.513Z,5.55
2023-07-24T03:35:37.757Z,6.65
2023-07-24T03:38:05.010Z,5.78
2023-07-24T03:40:32.356Z,6.07
2023-07-24T03:42:59.622Z,5.65
2023-07-24T03:45:26.911Z,5.90
2023-07-24T03:47:54.247Z,5.20
2023-07-24T03:50:21.622Z,4.90
2023-07-24T03:52:49.107Z,5.97
2023-07-24T03:55:16.393Z,6.05
2023-07-24T03:57:46.926Z,5.30
2023-07-24T04:00:15.110Z,7.28
2023-07-24T04:02:42.415Z,4.72
2023-07-24T04:05:09.764Z,6.03
2023-07-24T04:07:38.286Z,5.28
2023-07-24T04:10:06.205Z,6.15
2023-07-24T04:12:33.679Z,5.63
2023-07-24T04:15:00.823Z,6.43
2023-07-24T04:17:27.974Z,7.18
2023-07-24T04:19:55.372Z,5.32
2023-07-24T04:22:22.614Z,7.18
2023-07-24T04:24:50.444Z,6.22
2023-07-24T04:27:17.697Z,24.02
2023-07-24T04:29:45.046Z,9.45
2023-07-24T04:32:12.353Z,15.27
2023-07-24T04:34:39.722Z,15.00
2023-07-24T04:37:07.081Z,11.32
2023-07-24T04:39:34.799Z,17.02
2023-07-24T04:42:02.109Z,17.50
2023-07-24T04:44:29.407Z,19.27
2023-07-24T04:46:57.136Z,10.93
2023-07-24T04:49:26.451Z,19.23
2023-07-24T04:51:55.634Z,10.60
2023-07-24T04:54:27.204Z,15.80
2023-07-24T04:56:57.043Z,12.48
2023-07-24T04:59:25.707Z,10.40
2023-07-24T05:01:54.934Z,10.50
2023-07-24T05:04:25.958Z,16.40
2023-07-24T05:06:55.407Z,8.68
2023-07-24T05:09:25.024Z,12.20
2023-07-24T05:11:54.641Z,12.95
2023-07-24T05:14:24.334Z,10.90
2023-07-24T05:16:52.702Z,14.13
2023-07-24T05:19:23.056Z,17.63
2023-07-24T05:21:56.141Z,17.92
2023-07-24T05:24:25.191Z,12.73
2023-07-24T05:26:54.833Z,11.52
2023-07-24T05:29:24.734Z,14.60
2023-07-24T05:31:55.295Z,17.98
2023-07-24T05:34:25.024Z,10.60
2023-07-24T05:36:52.871Z,8.90
2023-07-24T05:39:24.498Z,9.25
2023-07-24T05:41:52.336Z,10.77
2023-07-24T05:44:19.930Z,12.90
2023-07-24T05:46:50.048Z,8.48
2023-07-24T05:49:17.350Z,12.25
2023-07-24T05:51:44.657Z,11.07
2023-07-24T05:54:13.677Z,9.23
2023-07-24T05:56:41.068Z,11.75
2023-07-24T05:59:08.428Z,10.23
2023-07-24T06:01:35.559Z,15.02
2023-07-24T06:04:02.844Z,17.38
2023-07-24T06:06:30.480Z,10.40
2023-07-24T06:08:58.120Z,8.95
2023-07-24T06:11:25.397Z,12.40
2023-07-24T06:13:53.283Z,35.97
2023-07-24T06:16:20.548Z,28.00
2023-07-24T06:18:47.886Z,24.77
2023-07-24T06:21:15.436Z,13.43
2023-07-24T06:23:42.715Z,19.95
2023-07-24T06:26:09.996Z,18.98
2023-07-24T06:28:41.262Z,20.40
2023-07-24T06:33:38.644Z,7.55
2023-07-24T06:36:10.562Z,8.77
2023-07-24T06:38:37.926Z,16.52
2023-07-24T06:41:05.301Z,12.18
2023-07-24T06:43:32.706Z,9.68
2023-07-24T06:46:00.153Z,22.60
2023-07-24T06:48:27.460Z,11.80
2023-07-24T06:50:54.845Z,28.17
2023-07-24T06:53:22.248Z,11.75
2023-07-24T06:55:50.391Z,5.93
2023-07-24T06:58:17.646Z,9.70
2023-07-24T07:00:44.976Z,20.02
2023-07-24T07:03:12.532Z,20.95
2023-07-24T07:05:39.845Z,19.42
2023-07-24T07:08:07.046Z,18.30
2023-07-24T07:10:34.551Z,10.52
2023-07-24T07:13:01.880Z,10.43
2023-07-24T07:15:29.272Z,10.02
2023-07-24T07:17:56.804Z,15.18
2023-07-24T07:20:24.421Z,12.38
2023-07-24T07:22:51.989Z,8.38
2023-07-24T07:25:19.323Z,7.45
2023-07-24T07:27:49.043Z,15.63
2023-07-24T07:30:17.564Z,17.15
2023-07-24T07:32:45.052Z,9.35
2023-07-24T07:35:15.627Z,10.20
2023-07-24T07:37:43.176Z,9.43
2023-07-24T07:40:11.469Z,10.88
2023-07-24T07:42:40.040Z,6.72
2023-07-24T07:45:08.234Z,9.85
2023-07-24T07:47:35.446Z,9.23
2023-07-24T07:50:02.870Z,7.35
2023-07-24T07:52:30.215Z,9.13
2023-07-24T07:54:59.086Z,10.77
2023-07-24T07:57:27.496Z,14.20
2023-07-24T07:59:54.840Z,13.10
2023-07-24T08:02:22.337Z,13.52
2023-07-24T08:04:50.133Z,14.40
2023-07-24T08:07:17.709Z,11.93
2023-07-24T08:09:47.849Z,16.65
2023-07-24T08:12:15.215Z,18.77
2023-07-24T08:14:42.461Z,14.57
2023-07-24T08:17:09.908Z,17.33
2023-07-24T08:19:37.316Z,24.77
2023-07-24T08:22:06.614Z,18.70
2023-07-24T08:24:37.252Z,24.48
2023-07-24T08:27:04.912Z,17.90
2023-07-24T08:29:32.212Z,23.52
2023-07-24T08:31:59.769Z,23.00
2023-07-24T08:34:27.193Z,30.75
2023-07-24T08:36:54.448Z,28.52
2023-07-24T08:39:21.730Z,25.45
2023-07-24T08:41:49.172Z,30.60
2023-07-24T08:44:17.424Z,17.33
2023-07-24T08:46:47.335Z,24.10
2023-07-24T08:49:15.064Z,26.70
2023-07-24T08:51:43.387Z,27.15
2023-07-24T08:54:12.629Z,28.70
2023-07-24T08:56:41.443Z,35.95
2023-07-24T08:59:08.743Z,34.03
2023-07-24T09:01:36.005Z,28.90
2023-07-24T09:04:03.316Z,27.88
2023-07-24T09:06:30.779Z,30.77
2023-07-24T09:08:58.092Z,24.77
2023-07-24T09:11:25.309Z,18.30
2023-07-24T09:13:55.318Z,16.75
2023-07-24T09:16:27.257Z,20.35
2023-07-24T09:21:31.911Z,16.52
2023-07-24T09:24:16.500Z,17.83
2023-07-24T09:26:58.542Z,13.73
2023-07-24T09:29:33.729Z,11.43
2023-07-24T09:32:05.560Z,12.48
2023-07-24T09:34:33.005Z,7.93
2023-07-24T09:37:04.877Z,5.65
2023-07-24T09:39:32.769Z,8.05
2023-07-24T09:42:07.454Z,12.25
2023-07-24T09:44:34.968Z,12.43
2023-07-24T09:47:29.012Z,11.35
2023-07-24T09:49:55.090Z,10.90
2023-07-24T09:52:22.967Z,15.27
2023-07-24T09:55:12.084Z,15.07
2023-07-24T09:57:41.720Z,11.45
2023-07-24T10:00:16.485Z,13.93
2023-07-24T10:02:49.277Z,11.68
2023-07-24T10:05:21.469Z,9.15
2023-07-24T10:07:51.568Z,8.55
2023-07-24T10:10:20.691Z,13.57
2023-07-24T10:12:58.409Z,11.65
2023-07-24T10:15:35.428Z,11.98
2023-07-24T10:18:08.476Z,10.70
2023-07-24T10:20:42.396Z,23.60
2023-07-24T10:23:12.416Z,23.75
2023-07-24T10:25:47.361Z,9.75
2023-07-24T10:28:21.974Z,7.57
2023-07-24T10:31:00.633Z,15.52
2023-07-24T10:33:31.975Z,8.02
2023-07-24T10:38:43.521Z,13.50
2023-07-24T10:41:12.485Z,7.97
2023-07-24T10:43:50.210Z,7.82
2023-07-24T10:46:22.085Z,6.55
2023-07-24T10:48:52.048Z,6.55
2023-07-24T10:51:20.842Z,6.38
2023-07-24T10:53:50.494Z,6.50
2023-07-24T10:56:18.946Z,3.78
2023-07-24T10:58:46.328Z,4.38
2023-07-24T11:01:15.364Z,19.23
2023-07-24T11:03:43.575Z,5.13
2023-07-24T11:06:38.079Z,7.68
2023-07-24T11:09:05.344Z,22.30
2023-07-24T11:11:37.082Z,7.82
2023-07-24T11:14:05.198Z,8.32
2023-07-24T11:16:34.424Z,12.02
2023-07-24T11:19:02.264Z,5.15
2023-07-24T11:21:31.584Z,6.68
2023-07-24T11:23:59.530Z,4.97
2023-07-24T11:26:28.033Z,5.68
2023-07-24T11:28:55.654Z,5.07
2023-07-24T11:31:23.266Z,5.40
2023-07-24T11:33:52.972Z,4.93
2023-07-24T11:36:20.887Z,5.05
2023-07-24T11:38:49.105Z,5.10
2023-07-24T11:41:18.311Z,27.13
2023-07-24T11:43:50.329Z,13.40
2023-07-24T11:46:28.383Z,6.43
2023-07-24T11:48:58.784Z,4.88
2023-07-24T11:51:31.248Z,6.70
2023-07-24T11:54:13.684Z,6.32
2023-07-24T11:56:40.938Z,5.88
2023-07-24T11:59:15.464Z,5.22
2023-07-24T12:01:50.334Z,5.00
2023-07-24T12:04:19.106Z,5.47
2023-07-24T12:06:46.561Z,5.35
2023-07-24T12:09:13.895Z,5.22
2023-07-24T12:11:46.572Z,4.88
2023-07-24T12:14:15.363Z,5.00
2023-07-24T12:16:42.752Z,4.85
2023-07-24T12:19:10.102Z,5.13
2023-07-24T12:21:37.469Z,5.40
2023-07-24T12:24:04.885Z,5.30
2023-07-24T12:26:32.083Z,4.93
2023-07-24T12:29:01.862Z,4.28
2023-07-24T12:31:30.235Z,6.95
2023-07-24T12:33:57.875Z,5.63
2023-07-24T12:36:25.606Z,4.05
2023-07-24T12:38:52.970Z,10.40
2023-07-24T12:41:20.521Z,11.05
2023-07-24T12:43:47.920Z,8.35
2023-07-24T12:46:18.164Z,5.10
2023-07-24T12:48:46.041Z,4.47
2023-07-24T12:51:13.354Z,4.82
2023-07-24T12:53:49.791Z,13.95
2023-07-24T12:56:20.464Z,10.05
2023-07-24T12:58:47.874Z,4.00
2023-07-24T13:01:15.166Z,5.28
2023-07-24T13:03:42.722Z,4.85
2023-07-24T13:06:10.133Z,9.45
2023-07-24T13:08:37.541Z,9.18
2023-07-24T13:11:04.805Z,5.57
2023-07-24T13:13:32.104Z,4.40
2023-07-24T13:15:59.547Z,11.20
2023-07-24T13:18:28.810Z,19.30
2023-07-24T13:20:57.884Z,5.78
2023-07-24T13:23:25.302Z,5.57
2023-07-24T13:25:53.640Z,4.53
2023-07-24T13:28:21.043Z,3.13
2023-07-24T13:30:48.452Z,9.88
2023-07-24T13:33:15.908Z,9.00
2023-07-24T13:35:43.178Z,7.40
2023-07-24T13:38:10.579Z,5.22
2023-07-24T13:40:40.730Z,4.30
2023-07-24T13:43:08.119Z,3.13
2023-07-24T13:45:35.667Z,2.72
2023-07-24T13:48:03.501Z,11.75
2023-07-24T13:50:30.961Z,13.32
2023-07-24T13:52:58.392Z,5.00
2023-07-24T13:55:25.741Z,5.00
2023-07-24T13:57:53.074Z,5.00
2023-07-24T14:00:20.419Z,8.60
2023-07-24T14:02:49.236Z,6.72
2023-07-24T14:05:18.558Z,6.40
2023-07-24T14:07:47.087Z,26.93
2023-07-24T14:10:14.821Z,3.67
2023-07-24T14:12:42.155Z,11.85
2023-07-24T14:15:09.809Z,8.07
2023-07-24T14:17:37.488Z,4.70
2023-07-24T14:20:08.843Z,8.48
2023-07-24T14:22:36.008Z,13.73
2023-07-24T14:25:05.113Z,6.95
2023-07-24T14:27:32.822Z,6.90
2023-07-24T14:30:00.405Z,4.13
2023-07-24T14:32:27.874Z,3.08
2023-07-24T14:34:55.087Z,3.47
2023-07-24T14:37:22.419Z,2.95
2023-07-24T14:39:51.934Z,2.90
2023-07-24T14:42:20.159Z,4.55
2023-07-24T14:44:47.317Z,3.03
2023-07-24T14:47:15.023Z,2.97
2023-07-24T14:49:42.241Z,2.38
2023-07-24T14:52:09.624Z,3.75
2023-07-24T14:54:39.300Z,3.40
2023-07-24T14:57:19.277Z,3.15
2023-07-24T14:59:51.779Z,3.15
2023-07-24T15:02:19.221Z,3.22
2023-07-24T15:04:48.538Z,2.70
2023-07-24T15:07:22.408Z,2.95
2023-07-24T15:09:50.423Z,4.18
2023-07-24T15:12:17.757Z,5.75
2023-07-24T15:14:45.811Z,4.35
2023-07-24T15:17:15.980Z,12.85
2023-07-24T15:19:43.301Z,5.75
2023-07-24T15:22:10.595Z,8.52
2023-07-24T15:24:37.818Z,6.35
2023-07-24T15:27:10.065Z,4.93
2023-07-24T15:29:38.068Z,6.32
2023-07-24T15:32:06.968Z,14.50
2023-07-24T15:34:40.276Z,7.47
2023-07-24T15:37:09.060Z,7.88
2023-07-24T15:39:36.388Z,5.43
2023-07-24T15:42:04.213Z,5.65
2023-07-24T15:44:31.599Z,5.25
2023-07-24T15:46:58.848Z,4.82
2023-07-24T15:49:26.619Z,5.05
2023-07-24T15:51:53.945Z,5.35
2023-07-24T15:54:21.096Z,4.95
2023-07-24T15:56:48.875Z,3.40
2023-07-24T15:59:16.326Z,4.22
2023-07-24T16:01:43.677Z,4.20
2023-07-24T16:04:11.048Z,5.25
2023-07-24T16:06:38.920Z,4.20
2023-07-24T16:09:08.540Z,3.88
2023-07-24T16:11:36.535Z,5.95
2023-07-24T16:14:05.009Z,4.57
2023-07-24T16:16:32.560Z,4.68
2023-07-24T16:19:20.879Z,4.38
2023-07-24T16:21:51.255Z,4.32
2023-07-24T16:24:19.500Z,4.80
2023-07-24T16:26:51.047Z,5.07
2023-07-24T16:29:18.811Z,4.47
2023-07-24T16:31:46.108Z,5.43
2023-07-24T16:34:13.952Z,5.75
2023-07-24T16:36:41.449Z,4.32
2023-07-24T16:39:08.622Z,5.22
2023-07-24T16:41:36.397Z,4.13
2023-07-24T16:44:05.084Z,6.35
2023-07-24T16:46:33.125Z,3.65
2023-07-24T16:49:00.835Z,4.63
2023-07-24T16:51:28.402Z,4.95
2023-07-24T16:53:55.975Z,8.30
2023-07-24T16:56:23.437Z,4.82
2023-07-24T16:58:50.942Z,3.88
2023-07-24T17:01:18.942Z,3.15
2023-07-24T17:03:46.349Z,2.55
2023-07-24T17:06:13.975Z,4.10
2023-07-24T17:08:42.063Z,2.85
2023-07-24T17:11:09.479Z,3.55
2023-07-24T17:13:37.169Z,2.40
2023-07-24T17:16:04.926Z,3.03
2023-07-24T17:18:32.866Z,2.85
2023-07-24T17:21:01.023Z,2.40
2023-07-24T17:23:29.043Z,4.60
2023-07-24T17:25:56.590Z,2.92
2023-07-24T17:28:23.947Z,4.97
2023-07-24T17:30:52.139Z,4.75
2023-07-24T17:33:20.553Z,4.50
2023-07-24T17:35:48.865Z,5.03
2023-07-24T17:38:16.888Z,4.05
2023-07-24T17:40:44.178Z,4.15
2023-07-24T17:43:11.491Z,3.78
2023-07-24T17:45:39.016Z,4.10
2023-07-24T17:48:06.851Z,8.77
2023-07-24T17:50:35.732Z,3.63
2023-07-24T17:53:03.109Z,4.30
2023-07-24T17:55:30.867Z,5.50
2023-07-24T17:58:01.492Z,4.53
2023-07-24T18:00:29.787Z,4.30
2023-07-24T18:02:57.126Z,4.47
2023-07-24T18:05:27.620Z,6.40
2023-07-24T18:07:54.943Z,3.67
2023-07-24T18:10:22.114Z,3.92
2023-07-24T18:12:50.487Z,5.28
2023-07-24T18:15:17.788Z,6.50
2023-07-24T18:17:47.735Z,4.57
2023-07-24T18:20:18.819Z,5.20
2023-07-24T18:22:46.862Z,3.55
2023-07-24T18:25:14.128Z,5.43
2023-07-24T18:27:44.527Z,3.95
2023-07-24T18:30:12.921Z,4.55
2023-07-24T18:32:41.284Z,4.30
2023-07-24T18:35:11.420Z,5.28
2023-07-24T18:37:39.014Z,7.30
2023-07-24T18:40:06.938Z,5.82
2023-07-24T18:42:34.581Z,6.35
2023-07-24T18:45:02.031Z,5.43
2023-07-24T18:47:29.304Z,5.13
2023-07-24T18:49:56.919Z,4.28
2023-07-24T18:52:24.414Z,7.05
2023-07-24T18:54:51.807Z,6.13
2023-07-24T18:57:18.985Z,6.25
2023-07-24T18:59:47.648Z,6.38
2023-07-24T19:02:15.920Z,6.40
2023-07-24T19:04:45.093Z,10.48
2023-07-24T19:07:12.541Z,8.07
2023-07-24T19:09:39.768Z,7.40
2023-07-24T19:12:07.630Z,8.75
2023-07-24T19:14:35.170Z,6.40
2023-07-24T19:17:02.603Z,9.75
2023-07-24T19:19:29.806Z,15.10
2023-07-24T19:21:57.402Z,16.88
2023-07-24T19:24:24.685Z,13.82
2023-07-24T19:26:52.056Z,10.73
2023-07-24T19:29:20.213Z,10.60
2023-07-24T19:31:48.558Z,14.13
2023-07-24T19:34:15.968Z,13.20
2023-07-24T19:36:44.971Z,10.38
2023-07-24T19:39:12.528Z,13.50
2023-07-24T19:41:39.795Z,13.80
2023-07-24T19:44:07.473Z,8.65
2023-07-24T19:46:34.675Z,8.32
2023-07-24T19:49:02.393Z,19.63
2023-07-24T19:51:30.124Z,10.07
2023-07-24T19:53:57.981Z,15.90
2023-07-24T19:56:25.382Z,10.85
2023-07-24T19:58:52.691Z,6.45
2023-07-24T20:01:22.927Z,9.25
2023-07-24T20:03:50.670Z,9.40
2023-07-24T20:06:18.885Z,12.82
2023-07-24T20:08:46.325Z,6.78
2023-07-24T20:11:14.586Z,8.82
2023-07-24T20:13:42.017Z,16.20
2023-07-24T20:16:09.351Z,21.75
2023-07-24T20:18:36.705Z,11.60
2023-07-24T20:21:04.511Z,14.95
2023-07-24T20:23:31.917Z,15.23
2023-07-24T20:26:00.231Z,15.43
2023-07-24T20:28:27.960Z,17.00
2023-07-24T20:30:55.685Z,8.10
2023-07-24T20:33:24.452Z,7.28
2023-07-24T20:35:52.399Z,6.70
2023-07-24T20:38:28.775Z,8.15
2023-07-24T20:40:57.907Z,7.20
2023-07-24T20:43:25.503Z,17.40
2023-07-24T20:45:53.081Z,11.45
2023-07-24T20:48:21.668Z,10.13
2023-07-24T20:50:49.145Z,11.23
2023-07-24T20:53:16.369Z,13.80
2023-07-24T20:55:43.711Z,11.05
2023-07-24T20:58:11.110Z,9.27
2023-07-24T21:00:38.228Z,7.60
2023-07-24T21:03:05.736Z,11.85
2023-07-24T21:05:36.313Z,18.90
2023-07-24T21:08:05.006Z,10.70
2023-07-24T21:10:32.201Z,7.05
2023-07-24T21:12:59.423Z,17.10
2023-07-24T21:15:26.679Z,7.45
2023-07-24T21:17:53.970Z,9.30
2023-07-24T21:20:21.305Z,8.85
2023-07-24T21:22:49.013Z,12.30
2023-07-24T21:25:17.077Z,10.43
2023-07-24T21:27:44.451Z,10.32
2023-07-24T21:30:12.254Z,11.73
2023-07-24T21:32:40.218Z,9.70
2023-07-24T21:35:07.811Z,16.45
2023-07-24T21:37:35.144Z,13.10
2023-07-24T21:40:02.496Z,9.23
2023-07-24T21:42:29.819Z,11.02
2023-07-24T21:44:56.883Z,9.35
2023-07-24T21:47:24.234Z,10.88
2023-07-24T21:49:51.438Z,13.27
2023-07-24T21:52:18.798Z,14.48
2023-07-24T21:54:46.115Z,11.30
2023-07-24T21:57:14.166Z,14.13
2023-07-24T21:59:41.341Z,16.05
2023-07-24T22:02:08.610Z,14.75
2023-07-24T22:04:36.324Z,14.85
2023-07-24T22:07:04.188Z,19.25
2023-07-24T22:09:31.570Z,19.17
2023-07-24T22:11:58.838Z,13.02
2023-07-24T22:14:26.013Z,12.13
2023-07-24T22:16:53.199Z,16.77
2023-07-24T22:19:20.426Z,11.40
2023-07-24T22:21:48.680Z,12.55
2023-07-24T22:24:15.980Z,10.85
2023-07-24T22:26:43.892Z,11.57
2023-07-24T22:29:11.340Z,13.77
2023-07-24T22:31:38.578Z,12.77
2023-07-24T22:34:05.800Z,11.70
2023-07-24T22:36:33.205Z,11.60
2023-07-24T22:39:03.638Z,7.45
2023-07-24T22:41:31.067Z,8.43
2023-07-24T22:43:58.633Z,14.82
2023-07-24T22:46:26.135Z,13.05
2023-07-24T22:48:53.519Z,9.77
2023-07-24T22:51:20.901Z,10.85
2023-07-24T22:53:48.866Z,10.75
2023-07-24T22:56:16.362Z,11.55
2023-07-24T22:59:15.659Z,8.80
2023-07-24T23:01:42.966Z,9.27
2023-07-24T23:04:10.202Z,5.50
2023-07-24T23:06:37.421Z,9.43
2023-07-24T23:09:05.040Z,12.85
2023-07-24T23:11:33.608Z,10.90
2023-07-24T23:14:01.209Z,9.88
2023-07-24T23:16:28.566Z,9.55
2023-07-24T23:18:56.239Z,7.30
2023-07-24T23:21:23.544Z,11.88
2023-07-24T23:23:52.541Z,13.25
2023-07-24T23:26:20.451Z,6.90
2023-07-24T23:28:48.162Z,8.65
2023-07-24T23:31:15.863Z,7.18
2023-07-24T23:33:43.270Z,9.52
2023-07-24T23:36:11.074Z,9.63
2023-07-24T23:38:38.589Z,10.50
2023-07-24T23:41:08.044Z,7.22
2023-07-24T23:43:35.517Z,9.85
2023-07-24T23:46:11.152Z,13.98
2023-07-24T23:48:38.882Z,10.90
2023-07-24T23:51:12.675Z,6.22
2023-07-24T23:53:39.931Z,10.05
2023-07-24T23:56:07.411Z,10.23
2023-07-24T23:58:34.742Z,7.30
